Time;durP1;ratioP1;P1;durP2;ratioP2;P2;SDS_P1;SDS_P2;PMS_P1;PMS_P2;Temp;Humidity;BMP_temperature;BMP_pressure;BME280_temperature;BME280_humidity;BME280_pressure;Samples;Min_cycle;Max_cycle;Signal;HPM_P1;HPM_P2
2022/05/09 00:05:15;;;;;;;;;;;;;;;;;;;;;
2022/05/09 00:08:46;;;;;;;2.83;1.90;;;;;;;18.18;37.82;101131.27;1707174;114;25890;-76
2022/05/09 00:12:12;;;;;;;3.12;1.98;;;;;;;18.20;37.87;101130.85;1733529;111;26353;-78
2022/05/09 00:15:41;;;;;;;3.45;1.85;;;;;;;18.13;38.03;101142.26;1773785;110;25978;-77
2022/05/09 00:19:13;;;;;;;2.83;1.60;;;;;;;18.08;38.12;101143.98;1746661;111;25953;-76
2022/05/09 00:23:10;;;;;;;4.08;1.60;;;;;;;18.04;38.32;101143.08;1770165;110;25962;-78
2022/05/09 00:27:12;;;;;;;4.05;2.87;;;;;;;17.94;38.49;101153.14;1751344;111;25968;-76
2022/05/09 00:30:35;;;;;;;2.75;1.80;;;;;;;17.84;38.59;101152.20;1751427;111;25881;-75
2022/05/09 00:33:56;;;;;;;3.40;2.25;;;;;;;17.75;38.97;101152.55;1751601;112;25829;-76
2022/05/09 00:37:20;;;;;;;4.70;2.00;;;;;;;17.66;39.14;101161.30;1751021;111;25421;-75
2022/05/09 00:44:49;;;;;;;2.15;1.72;;;;;;;17.52;39.48;101160.32;1763842;110;25918;-77
2022/05/09 00:48:31;;;;;;;4.70;1.75;;;;;;;17.41;39.65;101169.03;1745085;112;25945;-76
2022/05/09 00:52:45;;;;;;;4.17;1.80;;;;;;;17.39;39.72;101173.39;1778506;111;25962;-75
2022/05/09 00:56:12;;;;;;;5.05;2.15;;;;;;;17.34;39.77;101171.13;1790229;109;26156;-75
2022/05/09 00:59:48;;;;;;;3.05;1.72;;;;;;;17.32;39.88;101174.21;1867263;99;25863;-74
2022/05/09 01:03:47;;;;;;;5.55;2.15;;;;;;;17.29;40.01;101174.62;1816210;106;26011;-75
2022/05/09 01:07:22;;;;;;;2.75;1.52;;;;;;;17.24;40.07;101181.15;1781280;111;25978;-74
2022/05/09 01:11:20;;;;;;;4.33;1.72;;;;;;;17.11;39.96;101193.35;1669364;118;32523;-74
2022/05/09 01:14:54;;;;;;;2.40;1.47;;;;;;;17.11;39.96;101193.35;1655845;117;25885;-75
2022/05/09 01:18:52;;;;;;;2.65;1.90;;;;;;;17.08;40.34;101192.00;1618065;119;25548;-75
2022/05/09 01:22:42;;;;;;;2.67;1.40;;;;;;;17.05;40.53;101195.05;1617092;120;25953;-74
2022/05/09 01:26:26;;;;;;;5.05;2.05;;;;;;;17.05;40.60;101198.99;1637218;120;25889;-74
2022/05/09 01:36:16;;;;;;;;;;;;;;;;;;;;;
2022/05/09 01:44:52;;;;;;;2.55;1.80;;;;;;;16.85;40.82;101194.83;1676754;115;25941;-74
2022/05/09 01:53:20;;;;;;;6.47;2.35;;;;;;;16.73;40.90;101200.79;1707939;112;25958;-75
2022/05/09 01:57:05;;;;;;;2.33;1.42;;;;;;;16.67;41.04;101211.25;1678448;115;26081;-74
2022/05/09 02:08:52;;;;;;;6.65;1.92;;;;;;;16.55;41.10;101213.75;1684024;112;25951;-75
2022/05/09 02:16:21;;;;;;;3.10;1.50;;;;;;;16.38;41.25;101215.73;1645153;117;25909;-75
2022/05/09 02:20:00;;;;;;;;;;;;;;;;;;;;;
2022/05/09 02:23:39;;;;;;;2.40;1.55;;;;;;;16.30;41.17;101223.97;1680251;116;26016;-78
2022/05/09 02:27:32;;;;;;;;;;;;;;;;;;;;;
2022/05/09 02:31:10;;;;;;;;;;;;;;;;;;;;;
2022/05/09 02:38:57;;;;;;;2.90;1.25;;;;;;;16.15;41.14;101229.87;1666302;113;25922;-76
2022/05/09 02:42:34;;;;;;;1.60;1.30;;;;;;;16.12;41.12;101240.36;1664504;118;25990;-75
2022/05/09 02:46:03;;;;;;;4.87;1.60;;;;;;;16.10;41.12;101237.23;1673058;116;25947;-75
2022/05/09 02:49:50;;;;;;;2.83;1.77;;;;;;;16.07;41.12;101234.16;1693328;115;25991;-75
2022/05/09 02:53:28;;;;;;;1.90;1.32;;;;;;;16.03;41.11;101246.78;1693609;113;25923;-73
2022/05/09 02:57:14;;;;;;;3.75;1.30;;;;;;;15.98;41.11;101241.47;1720848;113;25874;-75
2022/05/09 03:00:35;;;;;;;2.33;1.30;;;;;;;15.95;41.09;101255.00;1762320;110;25953;-75
2022/05/09 03:08:06;;;;;;;;;;;;;;;15.93;41.04;101259.34;1764034;112;25877;-75
2022/05/09 03:11:45;;;;;;;3.15;1.40;;;;;;;15.85;41.12;101270.19;1751646;112;25896;-75
2022/05/09 03:16:01;;;;;;;2.20;1.40;;;;;;;15.76;41.12;101267.87;1761578;110;26099;-75
2022/05/09 03:19:33;;;;;;;1.25;1.02;;;;;;;15.77;41.16;101273.58;1763146;110;25996;-75
2022/05/09 03:27:32;;;;;;;2.33;1.15;;;;;;;15.63;41.20;101278.13;1738484;111;25825;-79
2022/05/09 03:31:27;;;;;;;6.12;1.10;;;;;;;15.60;41.20;101280.27;1762098;107;26233;-77
2022/05/09 03:35:39;;;;;;;;;;;;;;;;;;;;;
2022/05/09 03:39:45;;;;;;;3.12;1.47;;;;;;;15.49;41.30;101288.36;1834537;106;25923;-81
2022/05/09 03:47:14;;;;;;;4.90;1.75;;;;;;;15.40;41.29;101303.98;1834111;106;25810;-81
2022/05/09 03:50:55;;;;;;;3.62;1.25;;;;;;;15.40;41.32;101306.62;1801526;106;26241;-77
2022/05/09 03:54:40;;;;;;;2.62;1.82;;;;;;;15.42;41.23;101321.53;1791610;109;25918;-75
2022/05/09 03:58:31;;;;;;;3.85;1.57;;;;;;;15.38;41.26;101318.39;1814003;107;26151;-80
2022/05/09 04:02:17;;;;;;;3.20;1.75;;;;;;;15.35;41.16;101324.90;1824014;107;25959;-74
2022/05/09 04:06:06;;;;;;;2.47;1.15;;;;;;;15.33;41.14;101323.57;1828915;102;25699;-78
2022/05/09 04:10:17;;;;;;;7.12;1.72;;;;;;;15.38;41.11;101330.22;1827311;106;25809;-81
2022/05/09 04:13:49;;;;;;;2.58;1.40;;;;;;;15.39;41.02;101325.84;1804284;108;25855;-77
2022/05/09 04:17:21;;;;;;;2.98;1.15;;;;;;;15.39;41.03;101322.81;1814461;108;25819;-76
2022/05/09 04:20:59;;;;;;;2.70;1.30;;;;;;;15.41;40.99;101329.40;1866498;104;25893;-75
2022/05/09 04:24:20;;;;;;;4.20;1.30;;;;;;;15.43;40.88;101332.95;1866948;103;25907;-81
2022/05/09 04:27:44;;;;;;;2.33;1.27;;;;;;;15.43;40.85;101337.77;1866822;104;26464;-74
2022/05/09 04:31:04;;;;;;;3.08;2.20;;;;;;;15.47;40.69;101336.09;1878895;104;25896;-82
2022/05/09 04:34:34;;;;;;;5.40;1.12;;;;;;;15.45;40.63;101341.30;1913202;102;31072;-74
2022/05/09 04:38:02;;;;;;;;;;;;;;;15.44;40.62;101339.97;1914928;103;25738;-81
2022/05/09 04:45:14;;;;;;;4.75;1.85;;;;;;;15.55;40.38;101346.30;1833856;106;26062;-76
2022/05/09 04:52:54;;;;;;;1.85;1.22;;;;;;;15.64;40.28;101352.17;1695604;115;25882;-74
2022/05/09 04:56:44;;;;;;;2.08;1.05;;;;;;;15.71;40.17;101354.97;1693712;115;26035;-78
2022/05/09 05:00:21;;;;;;;1.30;1.10;;;;;;;15.79;40.18;101355.09;1696628;115;25891;-74
2022/05/09 05:03:49;;;;;;;1.55;1.15;;;;;;;15.87;40.15;101361.83;1696273;115;26023;-77
2022/05/09 05:07:14;;;;;;;3.50;1.40;;;;;;;15.92;40.17;101368.92;1627200;117;26250;-74
2022/05/09 05:10:53;;;;;;;1.92;0.98;;;;;;;15.99;40.16;101371.23;1637867;115;25932;-78
2022/05/09 05:14:34;;;;;;;1.47;1.00;;;;;;;16.06;40.25;101371.78;1631193;117;26026;-76
2022/05/09 05:18:39;;;;;;;3.62;0.90;;;;;;;16.14;40.12;101376.77;1629219;115;25945;-80
2022/05/09 05:22:06;;;;;;;2.08;0.85;;;;;;;16.21;39.96;101376.00;1628203;119;26094;-76
2022/05/09 05:26:03;;;;;;;3.10;1.00;;;;;;;16.24;39.71;101377.80;1627360;117;26267;-76
2022/05/09 05:29:36;;;;;;;3.25;1.07;;;;;;;16.31;39.64;101383.61;1628370;120;25776;-81
2022/05/09 05:33:36;;;;;;;2.67;1.00;;;;;;;16.36;39.46;101388.50;1680213;112;26723;-75
2022/05/09 05:37:32;;;;;;;5.00;1.27;;;;;;;16.44;39.41;101389.53;1681520;114;25846;-77
2022/05/09 05:42:09;;;;;;;;;;;;;;;;;;;;;
2022/05/09 05:57:41;;;;;;;1.35;0.60;;;;;;;17.04;39.77;101399.63;1810976;107;25866;-81
2022/05/09 06:04:49;;;;;;;2.57;0.77;;;;;;;17.22;39.57;101409.11;1784125;107;25991;-76
2022/05/09 06:08:30;;;;;;;3.47;0.70;;;;;;;17.38;39.48;101410.59;1735987;113;26643;-76
2022/05/09 06:12:13;;;;;;;3.60;0.70;;;;;;;17.60;39.22;101416.58;1737297;112;25561;-80
2022/05/09 06:16:04;;;;;;;0.95;0.75;;;;;;;17.98;38.24;101415.25;1719387;111;25882;-77
2022/05/09 06:19:54;;;;;;;1.55;0.80;;;;;;;18.47;37.94;101420.53;1696637;114;26148;-77
2022/05/09 06:24:18;;;;;;;2.35;0.80;;;;;;;18.99;37.29;101420.02;1693798;114;26078;-79
2022/05/09 06:27:59;;;;;;;6.05;1.00;;;;;;;19.67;36.95;101429.15;1713745;111;25907;-76
2022/05/09 06:31:39;;;;;;;1.57;0.70;;;;;;;20.75;35.99;101434.99;1740495;112;26079;-75
2022/05/09 06:44:53;;;;;;;0.53;0.50;;;;;;;25.23;31.59;101448.98;1742688;112;25832;-76
2022/05/09 06:48:37;;;;;;;6.12;1.60;;;;;;;26.60;30.01;101457.03;1692868;114;25978;-76
2022/05/09 06:52:44;;;;;;;1.37;0.60;;;;;;;27.62;28.87;101461.33;1644728;117;25474;-76
2022/05/09 06:56:41;;;;;;;5.15;0.70;;;;;;;28.68;27.49;101464.19;1721117;114;26040;-75
2022/05/09 07:00:40;;;;;;;5.62;0.80;;;;;;;29.73;26.22;101472.03;1698105;114;25932;-78
2022/05/09 07:04:21;;;;;;;5.90;1.05;;;;;;;30.63;24.50;101482.78;1673374;117;26096;-77
2022/05/09 07:08:15;;;;;;;2.25;0.60;;;;;;;30.97;22.59;101479.05;1655262;118;26643;-76
2022/05/09 07:11:35;;;;;;;8.15;0.70;;;;;;;30.78;21.50;101484.82;1631637;119;25966;-76
2022/05/09 07:15:14;;;;;;;2.22;0.80;;;;;;;30.90;21.08;101489.69;1668135;117;25888;-79
2022/05/09 07:19:22;;;;;;;1.92;0.70;;;;;;;31.14;20.51;101485.02;1669003;115;25843;-78
2022/05/09 07:23:10;;;;;;;1.15;0.80;;;;;;;31.20;19.93;101489.27;1668771;117;25826;-76
2022/05/09 07:26:36;;;;;;;4.85;1.07;;;;;;;31.40;19.29;101487.92;1652300;117;26046;-76
2022/05/09 07:30:22;;;;;;;;;;;;;;;;;;;;;
2022/05/09 07:33:38;;;;;;;1.70;0.85;;;;;;;32.19;18.61;101491.36;1664709;118;26090;-77
2022/05/09 07:37:00;;;;;;;2.83;0.90;;;;;;;32.54;18.10;101498.22;1700072;113;25937;-76
2022/05/09 07:40:21;;;;;;;1.35;0.62;;;;;;;32.66;17.71;101498.05;1681210;114;25997;-76
2022/05/09 07:44:18;;;;;;;7.12;0.93;;;;;;;32.96;17.54;101497.45;1722167;113;25898;-80
2022/05/09 07:48:16;;;;;;;3.55;0.80;;;;;;;33.13;17.24;101499.65;1776481;109;25875;-79
2022/05/09 07:51:51;;;;;;;6.47;0.72;;;;;;;33.47;17.06;101493.77;1812381;108;25880;-77
2022/05/09 07:55:16;;;;;;;3.50;0.93;;;;;;;33.62;16.78;101498.86;1787538;109;25857;-78
2022/05/09 07:58:48;;;;;;;1.70;0.82;;;;;;;33.92;16.53;101494.02;1810904;107;26584;-79
2022/05/09 08:02:32;;;;;;;2.58;1.07;;;;;;;34.32;16.32;101496.69;1835963;105;25889;-78
2022/05/09 08:06:02;;;;;;;2.98;0.65;;;;;;;34.54;15.64;101497.20;1860715;106;25899;-79
2022/05/09 08:09:29;;;;;;;3.20;0.78;;;;;;;34.76;15.52;101499.97;1859851;106;26068;-79
2022/05/09 08:13:02;;;;;;;4.67;1.50;;;;;;;35.01;15.15;101497.55;1860186;104;25847;-78
2022/05/09 08:16:45;;;;;;;3.42;0.93;;;;;;;35.11;14.95;101498.35;1860187;105;25875;-79
2022/05/09 08:20:16;;;;;;;2.52;0.75;;;;;;;35.19;14.87;101496.02;1860827;104;25921;-78
2022/05/09 08:24:16;;;;;;;4.22;1.02;;;;;;;35.15;14.79;101496.70;1857936;104;25952;-79
2022/05/09 08:27:25;;;;;;;2.27;0.78;;;;;;;35.12;14.96;101491.47;1942801;100;25916;-79
2022/05/09 08:30:55;;;;;;;1.77;0.57;;;;;;;35.33;14.61;101494.66;1976011;97;25847;-79
2022/05/09 08:34:34;;;;;;;4.25;0.70;;;;;;;35.40;14.56;101489.73;2005979;97;25967;-80
2022/05/09 08:38:06;;;;;;;5.22;1.00;;;;;;;35.68;14.25;101487.04;2053715;95;26011;-79
2022/05/09 08:42:10;;;;;;;5.92;1.00;;;;;;;35.69;13.61;101494.69;2066987;95;25802;-80
2022/05/09 08:45:47;;;;;;;1.15;0.70;;;;;;;35.67;13.75;101496.12;2130410;92;25308;-79
2022/05/09 08:49:27;;;;;;;2.30;0.57;;;;;;;35.92;13.71;101495.42;2129221;91;25778;-78
2022/05/09 08:53:11;;;;;;;1.15;0.60;;;;;;;36.13;13.52;101497.23;2130357;91;25891;-79
2022/05/09 08:57:09;;;;;;;5.47;0.70;;;;;;;36.38;13.47;101495.13;2057071;92;25816;-78
2022/05/09 09:00:37;;;;;;;2.42;0.60;;;;;;;36.53;13.31;101501.87;2058596;94;25918;-78
2022/05/09 09:04:23;;;;;;;;;;;;;;;;;;;;;
2022/05/09 09:08:28;;;;;;;3.05;0.80;;;;;;;36.53;12.86;101499.16;1997546;97;25397;-79
2022/05/09 09:12:47;;;;;;;1.30;0.60;;;;;;;36.43;12.96;101492.08;1998559;96;25926;-78
2022/05/09 09:17:01;;;;;;;6.75;0.60;;;;;;;36.17;12.97;101497.90;1999085;99;25882;-79
2022/05/09 09:20:52;;;;;;;2.52;0.70;;;;;;;35.95;13.08;101496.58;1998837;97;25364;-79
2022/05/09 09:25:01;;;;;;;1.82;0.62;;;;;;;36.09;13.04;101486.20;1993817;98;25827;-79
2022/05/09 09:28:49;;;;;;;0.93;0.72;;;;;;;36.24;12.92;101497.00;1989787;99;25968;-80
2022/05/09 09:32:36;;;;;;;4.45;0.60;;;;;;;36.31;12.87;101503.27;1965802;99;26173;-79
2022/05/09 09:36:41;;;;;;;2.35;0.50;;;;;;;36.24;12.96;101498.36;1970605;97;26174;-79
2022/05/09 09:40:35;;;;;;;3.52;1.00;;;;;;;36.30;12.62;101502.03;1964240;100;25797;-79
2022/05/09 09:44:27;;;;;;;1.65;0.60;;;;;;;36.17;12.52;101493.33;2005515;94;26151;-79
2022/05/09 09:48:43;;;;;;;;;;;;;;;;;;;;;
2022/05/09 09:51:57;;;;;;;2.40;0.55;;;;;;;36.25;12.37;101496.02;1975454;98;25842;-79
2022/05/09 09:55:42;;;;;;;1.35;0.65;;;;;;;35.88;12.36;101493.02;2032322;95;25820;-80
2022/05/09 09:59:34;;;;;;;0.90;0.60;;;;;;;35.58;12.54;101485.02;2032332;95;25430;-80
2022/05/09 10:03:40;;;;;;;3.15;0.72;;;;;;;35.58;12.57;101480.47;2033180;95;25865;-78
2022/05/09 10:07:43;;;;;;;1.45;0.60;;;;;;;35.63;12.61;101476.09;2050164;95;25822;-78
2022/05/09 10:11:39;;;;;;;1.02;0.80;;;;;;;35.57;12.40;101478.70;2024571;96;25853;-79
2022/05/09 10:15:45;;;;;;;2.40;0.60;;;;;;;35.39;12.46;101472.59;2023332;97;25768;-79
2022/05/09 10:19:56;;;;;;;1.65;1.00;;;;;;;35.32;12.50;101467.66;1981421;99;25810;-78
2022/05/09 10:31:54;;;;;;;2.87;0.88;;;;;;;35.09;12.56;101460.97;1938154;100;26646;-81
2022/05/09 10:35:45;;;;;;;5.37;0.93;;;;;;;35.01;12.60;101456.91;1914383;99;26017;-78
2022/05/09 10:39:58;;;;;;;5.78;1.10;;;;;;;34.90;12.51;101459.39;1914281;102;25863;-78
2022/05/09 10:43:53;;;;;;;5.65;1.57;;;;;;;34.75;12.45;101457.11;1945311;100;25819;-79
2022/05/09 10:47:58;;;;;;;1.77;0.60;;;;;;;34.62;12.48;101454.76;1937964;100;25779;-78
2022/05/09 10:52:14;;;;;;;6.37;0.60;;;;;;;34.52;12.65;101452.22;1958420;98;25843;-79
2022/05/09 10:56:03;;;;;;;3.67;0.50;;;;;;;34.37;12.44;101450.41;1938087;100;26136;-79
2022/05/09 10:59:59;;;;;;;7.17;0.60;;;;;;;34.16;12.37;101445.79;1930606;98;25842;-80
2022/05/09 11:03:45;;;;;;;1.85;0.55;;;;;;;33.89;12.84;101443.69;1927818;101;26463;-79
2022/05/09 11:07:34;;;;;;;1.75;0.65;;;;;;;33.59;13.18;101435.48;1932888;101;25885;-79
2022/05/09 11:11:47;;;;;;;;;;;;;;;;;;;;;
2022/05/09 11:15:19;;;;;;;3.90;0.70;;;;;;;33.28;13.00;101420.94;1978369;99;25897;-78
2022/05/09 11:19:46;;;;;;;2.37;0.85;;;;;;;33.33;12.72;101420.19;2021048;96;25964;-78
2022/05/09 11:24:08;;;;;;;;;;;;;;;;;;;;;
2022/05/09 11:28:02;;;;;;;2.65;0.50;;;;;;;33.27;12.91;101413.77;2053964;92;25916;-79
2022/05/09 11:32:17;;;;;;;3.15;0.50;;;;;;;33.34;12.92;101408.89;2053772;94;25820;-79
2022/05/09 11:35:44;;;;;;;2.98;0.50;;;;;;;33.58;12.96;101408.92;2017842;97;25897;-79
2022/05/09 11:39:36;;;;;;;4.12;0.70;;;;;;;33.70;12.78;101414.59;2018133;98;25946;-78
2022/05/09 11:43:45;;;;;;;1.35;0.60;;;;;;;33.53;12.54;101408.78;2018304;96;26563;-79
2022/05/09 11:47:38;;;;;;;1.92;0.53;;;;;;;33.45;12.91;101404.27;2034873;94;25823;-79
2022/05/09 11:51:53;;;;;;;0.68;0.60;;;;;;;33.43;13.02;101403.47;2017234;95;25861;-79
2022/05/09 11:55:26;;;;;;;2.15;0.80;;;;;;;33.42;12.95;101402.59;2017543;96;25865;-79
2022/05/09 11:59:01;;;;;;;3.72;1.25;;;;;;;33.55;12.96;101400.12;2017812;96;25887;-78
2022/05/09 12:03:02;;;;;;;2.00;0.80;;;;;;;33.52;12.87;101400.28;2016168;96;25833;-83
2022/05/09 12:07:06;;;;;;;1.45;0.50;;;;;;;33.53;12.98;101397.97;1931361;101;32438;-85
2022/05/09 12:10:52;;;;;;;1.47;0.70;;;;;;;33.61;12.83;101390.27;1930127;100;25780;-81
2022/05/09 12:14:50;;;;;;;5.25;0.90;;;;;;;33.64;12.72;101389.23;1915016;100;25963;-82
2022/05/09 12:18:55;;;;;;;1.22;0.45;;;;;;;33.51;12.82;101383.65;1929472;100;26618;-83
2022/05/09 12:22:49;;;;;;;3.98;1.20;;;;;;;33.43;12.74;101376.43;1928809;101;25932;-87
2022/05/09 12:26:42;;;;;;;;;;;;;;;;;;;;;
2022/05/09 12:30:04;;;;;;;4.67;0.60;;;;;;;33.19;12.92;101364.69;1967403;99;25780;-83
2022/05/09 12:33:53;;;;;;;0.80;0.60;;;;;;;33.23;12.86;101366.25;1970453;99;25787;-80
2022/05/09 12:37:24;;;;;;;0.62;0.40;;;;;;;33.12;12.91;101357.39;1998377;99;25751;-79
2022/05/09 12:41:39;;;;;;;;;;;;;;;;;;;;;
2022/05/09 12:45:20;;;;;;;1.98;1.37;;;;;;;33.06;12.96;101356.86;1937851;101;25933;-84
2022/05/09 12:49:36;;;;;;;;;;;;;;;;;;;;;
2022/05/09 12:53:25;;;;;;;3.15;0.60;;;;;;;32.99;13.00;101346.01;1867241;104;25772;-81
2022/05/09 12:57:46;;;;;;;4.05;0.75;;;;;;;32.67;12.96;101345.87;1816878;107;26357;-80
2022/05/09 13:02:10;;;;;;;5.65;0.62;;;;;;;32.47;13.10;101332.12;1817346;107;26575;-79
2022/05/09 13:06:09;;;;;;;2.95;0.60;;;;;;;32.16;13.15;101339.09;1816847;107;25883;-82
2022/05/09 13:10:09;;;;;;;6.90;0.85;;;;;;;31.65;13.02;101333.10;1809833;107;25927;-83
2022/05/09 13:17:15;;;;;;;6.55;0.60;;;;;;;31.76;13.11;101319.98;1715632;112;25879;-79
2022/05/09 13:21:11;;;;;;;1.70;0.90;;;;;;;31.78;13.36;101314.50;1726432;113;26513;-80
2022/05/09 13:25:30;;;;;;;;;;;;;;;;;;;;;
2022/05/09 13:29:43;;;;;;;1.72;0.60;;;;;;;31.88;13.34;101307.24;1710318;114;25879;-82
2022/05/09 13:33:38;;;;;;;2.67;0.82;;;;;;;31.92;13.17;101309.30;1739593;113;25956;-79
2022/05/09 13:37:26;;;;;;;;;;;;;;;;;;;;;
2022/05/09 13:41:28;;;;;;;2.00;0.68;;;;;;;31.69;13.52;101292.45;1727788;112;25937;-79
2022/05/09 13:45:55;;;;;;;;;;;;;;;;;;;;;
2022/05/09 13:53:47;;;;;;;1.62;0.60;;;;;;;31.07;14.29;101291.45;1784581;107;25997;-79
2022/05/09 13:57:43;;;;;;;1.20;0.53;;;;;;;30.93;14.34;101282.20;1884396;103;25880;-80
2022/05/09 14:04:59;;;;;;;2.42;0.65;;;;;;;30.48;14.48;101276.63;1892164;102;25759;-80
2022/05/09 14:08:29;;;;;;;1.95;1.20;;;;;;;30.06;14.82;101269.47;1876579;103;26517;-80
2022/05/09 14:12:14;;;;;;;1.45;0.78;;;;;;;29.69;14.56;101263.93;1874905;104;25899;-79
2022/05/09 14:16:17;;;;;;;1.60;0.70;;;;;;;29.31;14.50;101264.55;1885306;103;25917;-76
2022/05/09 14:19:40;;;;;;;4.83;0.80;;;;;;;28.83;14.69;101257.47;1812983;106;25916;-77
2022/05/09 14:23:11;;;;;;;2.67;0.60;;;;;;;28.48;15.50;101253.42;1813679;107;25739;-79
2022/05/09 14:30:56;;;;;;;3.08;0.75;;;;;;;27.86;15.52;101247.14;1811157;107;25909;-79
2022/05/09 14:34:28;;;;;;;3.08;0.80;;;;;;;27.48;15.74;101243.45;1835143;104;25863;-78
2022/05/09 14:38:04;;;;;;;5.55;0.90;;;;;;;27.21;15.98;101234.98;1832879;105;25855;-79
2022/05/09 14:41:40;;;;;;;9.73;0.95;;;;;;;26.78;15.97;101230.45;1838027;107;26104;-79
2022/05/09 14:45:17;;;;;;;7.72;0.80;;;;;;;26.42;16.43;101211.45;1858836;104;25994;-79
2022/05/09 14:48:38;;;;;;;2.35;0.90;;;;;;;26.37;16.79;101216.94;1891487;103;25811;-76
2022/05/09 14:52:57;;;;;;;4.50;0.80;;;;;;;26.29;16.87;101210.48;1891236;103;25903;-78
2022/05/09 15:00:17;;;;;;;4.70;0.93;;;;;;;26.05;17.03;101213.82;1901046;99;25856;-78
2022/05/09 15:04:04;;;;;;;3.77;1.15;;;;;;;25.86;17.36;101203.64;1975228;98;25881;-78
2022/05/09 15:07:25;;;;;;;4.50;0.80;;;;;;;25.72;17.54;101199.09;1975439;100;26703;-75
2022/05/09 15:10:58;;;;;;;3.42;0.90;;;;;;;25.63;17.73;101202.00;1975694;100;25855;-78
2022/05/09 15:14:21;;;;;;;1.42;0.80;;;;;;;25.56;17.84;101207.08;1975511;98;25811;-75
2022/05/09 15:17:47;;;;;;;1.85;0.70;;;;;;;25.33;17.80;101197.84;1975960;98;25547;-76
2022/05/09 15:21:15;;;;;;;3.08;0.70;;;;;;;25.17;17.75;101194.66;1975885;100;25777;-76
2022/05/09 15:24:37;;;;;;;3.90;0.80;;;;;;;25.13;17.99;101193.45;2115029;92;25716;-78
2022/05/09 15:28:05;;;;;;;2.72;0.80;;;;;;;25.11;18.02;101196.56;2089029;93;25782;-76
2022/05/09 15:31:26;;;;;;;4.75;1.15;;;;;;;24.99;18.16;101189.73;2112273;93;25650;-75
2022/05/09 15:34:50;;;;;;;1.40;0.60;;;;;;;24.66;18.03;101187.38;2114868;93;25803;-77
2022/05/09 15:38:24;;;;;;;1.98;0.88;;;;;;;24.44;18.66;101190.51;2114558;93;25731;-75
2022/05/09 15:41:50;;;;;;;2.98;0.60;;;;;;;24.38;18.58;101189.27;2114552;93;25724;-76
2022/05/09 15:45:15;;;;;;;6.67;1.00;;;;;;;24.37;18.62;101182.64;2114745;92;25767;-78
2022/05/09 15:49:00;;;;;;;2.98;0.80;;;;;;;24.39;18.71;101180.34;2072559;94;25910;-77
2022/05/09 15:52:26;;;;;;;2.62;1.45;;;;;;;24.35;18.74;101183.99;2072443;95;25823;-76
2022/05/09 15:56:00;;;;;;;8.20;0.75;;;;;;;24.30;18.75;101184.55;2072286;94;25835;-75
2022/05/09 15:59:30;;;;;;;5.08;0.80;;;;;;;24.20;18.56;101176.33;1982418;97;25898;-77
2022/05/09 16:02:52;;;;;;;2.15;0.70;;;;;;;24.15;18.76;101180.86;1982174;98;25904;-75
2022/05/09 16:13:42;;;;;;;1.17;0.60;;;;;;;23.99;18.69;101175.81;1981886;99;25783;-77
2022/05/09 16:20:34;;;;;;;2.80;0.60;;;;;;;23.95;18.77;101172.79;1960284;100;25788;-77
2022/05/09 16:23:56;;;;;;;6.85;0.95;;;;;;;23.88;18.79;101179.14;1960297;100;25841;-75
2022/05/09 16:27:52;;;;;;;2.37;0.70;;;;;;;23.84;18.83;101171.25;1960022;100;26099;-78
2022/05/09 16:31:32;;;;;;;1.20;0.78;;;;;;;23.80;18.85;101177.96;1959349;99;26090;-78
2022/05/09 16:34:56;;;;;;;1.93;0.40;;;;;;;23.79;18.85;101178.88;1960060;100;25900;-76
2022/05/09 16:38:23;;;;;;;0.95;0.70;;;;;;;23.74;18.85;101170.54;1959782;101;25942;-76
2022/05/09 16:42:26;;;;;;;5.55;0.70;;;;;;;23.60;18.96;101175.20;1959334;99;25868;-77
2022/05/09 16:45:59;;;;;;;2.05;0.60;;;;;;;23.58;18.89;101173.42;1909954;102;25803;-78
2022/05/09 16:49:38;;;;;;;5.08;1.05;;;;;;;23.50;19.05;101176.69;1902061;102;45431;-77
2022/05/09 16:53:02;;;;;;;6.62;0.90;;;;;;;23.48;19.12;101174.48;1900947;104;25799;-78
2022/05/09 16:56:36;;;;;;;4.00;0.80;;;;;;;23.50;19.05;101175.36;1918981;101;25869;-78
2022/05/09 17:00:13;;;;;;;3.62;0.72;;;;;;;23.49;19.06;101171.38;1908023;102;26555;-78
2022/05/09 17:03:38;;;;;;;1.20;0.70;;;;;;;23.44;19.11;101183.44;1925466;102;25819;-77
2022/05/09 17:07:26;;;;;;;;;;;;;;;;;;;;;
2022/05/09 17:10:56;;;;;;;4.87;0.70;;;;;;;23.32;19.19;101184.53;1924376;101;25848;-76
2022/05/09 17:14:17;;;;;;;1.35;0.65;;;;;;;23.28;19.21;101181.93;1925046;102;26540;-77
2022/05/09 17:18:00;;;;;;;6.80;0.80;;;;;;;23.20;19.27;101190.05;1971486;99;25951;-84
2022/05/09 17:21:29;;;;;;;4.70;0.72;;;;;;;23.13;19.37;101184.85;1984399;97;26014;-76
2022/05/09 17:24:50;;;;;;;1.72;0.60;;;;;;;;;;1983968;99;25883;-80
2022/05/09 17:28:23;;;;;;;10.23;0.80;;;;;;;22.95;19.56;101185.56;2001942;96;25990;-81
2022/05/09 17:31:45;;;;;;;4.25;0.90;;;;;;;22.87;19.84;101188.27;2007462;97;26562;-81
2022/05/09 17:37:15;;;;;;;4.45;0.60;;;;;;;22.81;19.63;101188.81;2012111;98;25764;-76
2022/05/09 17:38:37;;;;;;;5.22;0.90;;;;;;;22.59;19.69;101190.44;2011878;98;25936;-75
2022/05/09 17:42:07;;;;;;;2.20;0.70;;;;;;;22.47;19.90;101193.25;2083711;91;25832;-80
2022/05/09 17:45:51;;;;;;;1.72;0.70;;;;;;;22.43;19.83;101190.20;2122599;93;25910;-82
2022/05/09 17:49:16;;;;;;;0.82;0.60;;;;;;;22.38;19.93;101184.95;2124117;91;25659;-82
2022/05/09 17:52:59;;;;;;;2.40;0.70;;;;;;;22.30;19.69;101185.94;2123788;93;25793;-82
2022/05/09 17:56:44;;;;;;;3.08;0.50;;;;;;;22.13;19.79;101182.98;2155767;90;25702;-80
2022/05/09 18:00:19;;;;;;;;;;;;;;;22.03;19.93;101181.78;2159537;90;26189;-78
2022/05/09 18:03:59;;;;;;;4.08;0.70;;;;;;;21.92;19.84;101180.13;2181302;90;25694;-81
2022/05/09 18:07:32;;;;;;;4.15;1.22;;;;;;;21.73;19.93;101186.50;2177202;90;25218;-79
2022/05/09 18:11:25;;;;;;;4.20;0.93;;;;;;;21.64;20.17;101188.81;2146354;91;25892;-78
2022/05/09 18:15:30;;;;;;;1.57;0.72;;;;;;;21.60;20.26;101190.16;2132810;92;25816;-81
2022/05/09 18:19:15;;;;;;;4.30;0.72;;;;;;;21.41;20.31;101196.09;2123126;91;25750;-77
2022/05/09 18:22:50;;;;;;;4.35;0.82;;;;;;;21.22;20.32;101193.53;1976062;98;26150;-82
2022/05/09 18:26:19;;;;;;;5.65;0.95;;;;;;;21.05;20.39;101189.25;1975509;100;25821;-79
2022/05/09 18:29:58;;;;;;;6.70;1.02;;;;;;;20.87;20.39;101196.88;1972178;100;25800;-79
2022/05/09 18:33:33;;;;;;;2.95;0.80;;;;;;;20.66;20.52;101201.41;1972476;100;25598;-79
2022/05/09 18:37:03;;;;;;;3.50;1.07;;;;;;;20.50;20.63;101203.23;1956040;100;25757;-79
2022/05/09 18:40:26;;;;;;;8.43;1.20;;;;;;;20.42;20.74;101211.63;1965593;99;26462;-76
2022/05/09 18:47:45;;;;;;;5.33;1.30;;;;;;;20.73;22.16;101209.76;1960115;100;25864;-77
2022/05/09 18:55:34;;;;;;;3.92;2.83;;;;;;;21.08;23.23;101223.25;1994510;97;25906;-77
2022/05/09 18:59:17;;;;;;;7.37;5.12;;;;;;;21.15;23.76;101220.11;1907351;102;25834;-78
2022/05/09 19:02:54;;;;;;;7.40;5.35;;;;;;;21.28;24.63;101226.22;1906912;102;25836;-77
2022/05/09 19:06:39;;;;;;;6.72;5.05;;;;;;;21.37;25.29;101227.52;1907975;103;25832;-77
2022/05/09 19:10:33;;;;;;;4.75;4.30;;;;;;;21.43;25.97;101224.38;1851785;105;25811;-78
2022/05/09 19:14:01;;;;;;;7.25;4.60;;;;;;;21.49;26.34;101223.87;1841765;105;25745;-77
2022/05/09 19:17:29;;;;;;;7.12;3.67;;;;;;;21.48;26.29;101226.11;1814910;107;26033;-80
2022/05/09 19:20:52;;;;;;;10.43;3.42;;;;;;;21.45;26.08;101230.53;1816748;107;26470;-79
2022/05/09 19:24:50;;;;;;;6.50;3.42;;;;;;;21.39;25.94;101228.38;1824241;107;25948;-79
2022/05/09 19:28:40;;;;;;;5.92;2.85;;;;;;;21.36;25.74;101225.31;1841266;107;26480;-78
2022/05/09 19:32:04;;;;;;;5.80;3.05;;;;;;;21.32;25.53;101226.63;1839691;107;25997;-78
2022/05/09 19:35:31;;;;;;;3.83;3.00;;;;;;;21.30;25.45;101229.30;1847386;104;26019;-78
2022/05/09 19:39:21;;;;;;;7.20;2.47;;;;;;;21.29;25.41;101228.84;1892835;103;25394;-79
2022/05/09 19:42:51;;;;;;;6.40;2.40;;;;;;;21.29;25.34;101222.66;1889174;101;26435;-78
2022/05/09 19:46:20;;;;;;;2.63;2.03;;;;;;;21.25;25.31;101227.56;1883918;103;25782;-79
2022/05/09 19:49:50;;;;;;;5.97;2.40;;;;;;;21.20;25.32;101224.95;1885204;103;25913;-77
2022/05/09 19:57:14;;;;;;;2.42;1.95;;;;;;;21.14;25.19;101231.62;1984317;99;25813;-78
2022/05/09 20:01:03;;;;;;;6.80;1.65;;;;;;;21.10;25.15;101232.53;1997183;97;25888;-78
2022/05/09 20:04:39;;;;;;;4.75;1.55;;;;;;;21.05;25.10;101228.56;1997949;98;25801;-79